Airfield :
LOGIN :

Register | Disclaimer

   EN    FR    IT 

 










Legend :    VFR   Marginal VFR   IFR   Intensive IFR   Very Intensive IFR
Visi :
Ceiling :
>= 8 km
>= 3000ft
5 to 8 km
1000 to 3000 ft
1500m to 5 km
500 to 1000 ft
800 to 1500m
200 to 500 ft
< 800m
< 200 ft
Symbols :   Thunderstorms  Fog  Heavy snow  Heavy precipitations  Wind > 20 kt
SIGMETs :     Misc.  Thunderstorms  Icing  Turbulence  Mountain Waves  Volcanic Ashes







- Airport Elevation : 100 ft


EBDT - Schaffen

CURRENT METAR :
  • 142025Z AUTO 21004KT 9999 FEW022/// BKN180/// 02/01 Q0990 BLU

EXPIRED METARs :
  • 141955Z AUTO 22005KT 9999 FEW090/// SCT100/// OVC190/// 02/01 Q0990 BLU
  • 141937Z AUTO 21006KT 9999 SCT021/// BKN090/// 03/01 Q0990 WHT
  • 141925Z AUTO 23004KT 9999 VV060/// 03/01 Q0990 BLU
  • 141855Z AUTO 22005KT 9999 FEW041/// OVC070/// 03/02 Q0990 BLU
  • 141825Z AUTO 21007KT 9999 VV060/// 03/02 Q0991 BLU
  • 141803Z AUTO 20009KT 9999 -RA SCT010/// BKN048/// BKN080/// 04/02 Q0990 GRN
  • 141755Z AUTO 20009KT 9999 -RA VV000/// 04/02 Q0991 BLU

TAF TAF EBDT
Valid from the 14 at 19:00 until the 15 at 07:00 UTC


141541Z 1419/1507 22008G25KT 9999 SCT015
BECMG 1419/1421 BKN010
BECMG 1504/1506 18006KT 6000 -SNRA SCT003 BKN005
No reported NOTAMs for that airfield.



MET'MAP, your aeronautical weather chart ! - Copyright ORBIFLY December 2007 - Disclaimer

ORBIFLY MET'MAP TEAM :

Programming & Development : Alexandra Zaïnal
Concept & Development : Baudouin d'Aumeries
Co-Development & Prog : Marc-Olivier Méhu
Technical & hardware support : Manuel Goepfert

Contact : metmap@orbifly.com




SOURCES & CREDITS :

   NOAA